Sioux Gateway Col. Bud Day Field
KSUX : rendu visible

Aérodrome :











RETROUVEZ-NOUS SUR...

 
LOGIN :

S'inscrire | Disclaimer

   EN    FR    IT 

 









Légende :    VFR   VFR Marginal   IFR   IFR Intensif   IFR Très Intensif
Visi : 
Plafond : 
>= 8 km
>= 3000ft
5 à 8 km
1000 à 3000 ft
1500m à 5 km
500 à 1000 ft
800 à 1500m
200 à 500 ft
< 800m
< 200 ft
Symboles :   Orages  Brouillard  Fortes neiges  Fortes précipitations  Vent > 20 kt






- Altitude de l'aérodrome : 1098 ft
- Code IATA : SUX


KSUX - Sioux Gateway Col. Bud Day Field

DERNIER METAR :
  • 060952Z AUTO 12006KT 10SM OVC090 17/16 A2997 RMK AO2 SLP142 T01720156

METARs EXPIRÉS :
  • 060852Z AUTO 10007KT 10SM FEW043 17/16 A2997 RMK AO2 SLP144 T01720156 55002
  • 060752Z AUTO 15007KT 10SM CLR 19/16 A2996 RMK AO2 SLP140 T01940156

TAF KSUX
Valide du 06 à 06h jusqu'au 07 à 06h UTC


060531Z 0606/0706 15006KT P6SM BKN035
FM060700 15005KT P6SM VCSH BKN035
FM061000 14005KT P6SM BKN035
FM061400 16007KT P6SM BKN030
FM062300 17010G16KT P6SM SCT030
FIR KZMP / Amérique du Nord



MET'MAP, la Météo Aéronautique d'un coup d'oeil ! - Copyright ORBIFLY Décembre 2007 - Disclaimer

ORBIFLY MET'MAP TEAM :

Programmation & Développement : Alexandra Zaïnal
Sur une idée originale de : Baudouin d'Aumeries
Assistance à la programmation : Marc-Olivier Méhu
Soutien technique & logistique : Manuel Goepfert

Contact : metmap@orbifly.com




SOURCES & CREDITS :

   NOAA       Earth
Advisory